PWSweather.com
Personal Weather Stations
Station Observations
KCTCOLEB1
Sandy Brook, Colebrook, CT 06021

Sandy BrookColebrook, CT 06021

Lat: 42.0018, Lon: -73.0825

Elevation: 935

Station Type: Davis Vantage Pro2 + Solar + UV

Latest ConditionsUpdated 3:10:02 AM EDT Thursday, Oct 19, 2017
Currently Today's Max Today's Min Today's Average
Temperature 38.6°F3.7°C 42.1°F5.6°C 38.6°F3.7°C 40.2°F4.6°C
Dew Point 37.3°F2.9°C 40.5°F4.7°C 37.3°F2.9°C 38.7°F3.7°C
Winds Calm Calm Calm SECalm SE - Calm Calm
Wind Gusts -- -- - -
Humidity 95% 95% 94% 94%
Pressure 30.24 in1024.0 mb 30.27 in1025.1 mb 30.24 in1024.0 mb -
Hour Temp Dew Point Humidity Winds Wind Gusts Pressure Precip Precip Rate Daily Precip Total
03:10 AM 38.6°F3.7°C 37.3°F2.9°C 95% Calm Calm -- 30.24 in1024.0 mb - 0.00 in0.0 mm 0.00 in0.0 mm
03:00 AM 38.7°F3.7°C 37.4°F3.0°C 95% Calm Calm -- 30.25 in1024.4 mb - 0.00 in0.0 mm 0.00 in0.0 mm
02:50 AM 38.8°F3.8°C 37.5°F3.1°C 95% Calm Calm -- 30.25 in1024.4 mb - 0.00 in0.0 mm 0.00 in0.0 mm
02:40 AM 38.9°F3.8°C 37.6°F3.1°C 95% Calm Calm -- 30.25 in1024.4 mb - 0.00 in0.0 mm 0.00 in0.0 mm
02:30 AM 39.1°F3.9°C 37.8°F3.2°C 95% Calm Calm -- 30.25 in1024.4 mb - 0.00 in0.0 mm 0.00 in0.0 mm
02:20 AM 39.3°F4.1°C 37.7°F3.2°C 94% Calm Calm -- 30.25 in1024.4 mb - 0.00 in0.0 mm 0.00 in0.0 mm
02:10 AM 39.5°F4.2°C 38.2°F3.4°C 95% Calm Calm -- 30.26 in1024.7 mb - 0.00 in0.0 mm 0.00 in0.0 mm
02:00 AM 39.7°F4.3°C 38.1°F3.4°C 94% Calm Calm -- 30.26 in1024.7 mb - 0.00 in0.0 mm 0.00 in0.0 mm
01:50 AM 40.0°F4.4°C 38.4°F3.6°C 94% Calm Calm -- 30.26 in1024.7 mb - 0.00 in0.0 mm 0.00 in0.0 mm
01:40 AM 40.1°F4.5°C 38.8°F3.8°C 95% Calm Calm -- 30.26 in1024.7 mb - 0.00 in0.0 mm 0.00 in0.0 mm
01:30 AM 40.3°F4.6°C 38.7°F3.7°C 94% Calm Calm -- 30.26 in1024.7 mb - 0.00 in0.0 mm 0.00 in0.0 mm
01:20 AM 40.5°F4.7°C 38.9°F3.8°C 94% Calm Calm -- 30.26 in1024.7 mb - 0.00 in0.0 mm 0.00 in0.0 mm
01:10 AM 40.7°F4.8°C 39.1°F3.9°C 94% Calm Calm -- 30.26 in1024.7 mb - 0.00 in0.0 mm 0.00 in0.0 mm
01:00 AM 40.9°F4.9°C 39.3°F4.1°C 94% Calm Calm -- 30.26 in1024.7 mb - 0.00 in0.0 mm 0.00 in0.0 mm
12:50 AM 41.1°F5.1°C 39.5°F4.2°C 94% Calm Calm -- 30.26 in1024.7 mb - 0.00 in0.0 mm 0.00 in0.0 mm
12:40 AM 41.3°F5.2°C 39.7°F4.3°C 94% Calm Calm -- 30.26 in1024.7 mb - 0.00 in0.0 mm 0.00 in0.0 mm
12:30 AM 41.5°F5.3°C 39.9°F4.4°C 94% Calm Calm -- 30.26 in1024.7 mb - 0.00 in0.0 mm 0.00 in0.0 mm
12:20 AM 41.7°F5.4°C 40.1°F4.5°C 94% Calm Calm -- 30.26 in1024.7 mb - 0.00 in0.0 mm 0.00 in0.0 mm
12:10 AM 41.9°F5.5°C 40.3°F4.6°C 94% Calm Calm -- 30.27 in1025.1 mb - 0.00 in0.0 mm 0.00 in0.0 mm
12:00 AM 42.1°F5.6°C 40.5°F4.7°C 94% Calm Calm -- 30.27 in1025.1 mb - 0.00 in0.0 mm 0.00 in0.0 mm